createdAt,value
2018-05-04T08:03:01.522Z,41.80
2018-05-04T08:05:27.638Z,41.00
2018-05-04T08:07:53.749Z,41.20
2018-05-04T08:10:19.855Z,42.00
2018-05-04T08:12:45.966Z,42.00
2018-05-04T08:15:12.090Z,40.50
2018-05-04T08:17:38.928Z,41.40
2018-05-04T08:20:05.883Z,40.60
2018-05-04T08:22:31.914Z,40.50
2018-05-04T08:24:58.036Z,39.90
2018-05-04T08:27:24.222Z,39.20
2018-05-04T08:29:50.298Z,40.00
2018-05-04T08:32:18.298Z,40.30
2018-05-04T08:34:44.397Z,40.40
2018-05-04T08:37:10.518Z,39.30
2018-05-04T08:39:36.746Z,39.40
2018-05-04T08:42:04.079Z,40.00
2018-05-04T08:44:39.486Z,39.10
2018-05-04T08:47:05.595Z,39.00
2018-05-04T08:49:31.707Z,38.90
2018-05-04T08:51:57.814Z,38.50
2018-05-04T08:54:23.958Z,38.70
2018-05-04T08:56:50.774Z,37.00
2018-05-04T08:59:17.808Z,36.80
2018-05-04T09:01:43.740Z,36.80
2018-05-04T09:04:10.571Z,36.20
2018-05-04T09:06:36.691Z,36.20
2018-05-04T09:09:02.803Z,36.60
2018-05-04T09:11:28.862Z,36.40
2018-05-04T09:13:55.697Z,36.00
2018-05-04T09:16:22.525Z,36.20
2018-05-04T09:18:49.145Z,36.20
2018-05-04T09:21:15.230Z,36.30
2018-05-04T09:23:41.338Z,36.40
2018-05-04T09:26:08.184Z,34.40
2018-05-04T09:28:35.030Z,33.50
2018-05-04T09:31:01.913Z,33.40
2018-05-04T09:33:27.989Z,33.40
2018-05-04T09:35:54.819Z,33.70
2018-05-04T09:38:22.392Z,32.90
2018-05-04T09:40:49.226Z,33.30
2018-05-04T09:43:15.330Z,33.30
2018-05-04T09:45:41.417Z,33.40
2018-05-04T09:48:07.513Z,33.90
2018-05-04T09:50:34.348Z,32.10
2018-05-04T09:53:00.438Z,32.00
2018-05-04T09:55:26.532Z,31.80
2018-05-04T09:57:52.653Z,31.30
2018-05-04T10:00:18.757Z,31.20
2018-05-04T10:02:45.593Z,31.30
2018-05-04T10:05:11.702Z,31.30
2018-05-04T10:07:38.555Z,30.90
2018-05-04T10:10:04.661Z,30.90
2018-05-04T10:12:30.758Z,30.80
2018-05-04T10:14:56.865Z,31.10
2018-05-04T10:17:22.966Z,31.40
2018-05-04T10:20:18.555Z,31.00
2018-05-04T10:22:44.700Z,29.80
2018-05-04T10:25:10.796Z,29.50
2018-05-04T10:27:36.918Z,29.40
2018-05-04T10:30:03.044Z,29.30
2018-05-04T10:32:29.157Z,29.50
2018-05-04T10:34:55.275Z,30.00
2018-05-04T10:37:21.386Z,30.00
2018-05-04T10:39:48.815Z,30.10
2018-05-04T10:42:14.931Z,30.10
2018-05-04T10:44:41.047Z,29.70
2018-05-04T10:47:07.175Z,29.40
2018-05-04T10:49:33.983Z,29.90
2018-05-04T10:52:00.102Z,29.20
2018-05-04T10:54:26.201Z,28.60
2018-05-04T10:56:53.061Z,29.00
2018-05-04T10:59:31.726Z,29.00
2018-05-04T11:01:57.833Z,29.80
2018-05-04T11:04:23.949Z,30.00
2018-05-04T11:06:50.070Z,29.50
2018-05-04T11:09:16.164Z,30.00
2018-05-04T11:11:42.273Z,30.40
2018-05-04T11:14:08.369Z,30.80
2018-05-04T11:16:34.495Z,31.10
2018-05-04T11:19:00.592Z,31.00
2018-05-04T11:21:26.698Z,31.40
2018-05-04T11:23:53.561Z,31.30
2018-05-04T11:26:19.706Z,31.30
2018-05-04T11:28:45.811Z,30.10
2018-05-04T11:31:11.906Z,29.90
2018-05-04T11:33:38.620Z,30.10
2018-05-04T11:36:04.734Z,30.20
2018-05-04T11:38:30.850Z,30.00
2018-05-04T11:40:56.976Z,30.00
2018-05-04T11:43:43.362Z,30.50
2018-05-04T11:46:15.877Z,30.30
2018-05-04T11:48:41.990Z,30.50
2018-05-04T11:51:08.090Z,30.10
2018-05-04T11:53:34.198Z,29.90
2018-05-04T11:56:01.041Z,30.20
2018-05-04T11:58:27.888Z,30.30
2018-05-04T12:00:54.742Z,30.70
2018-05-04T12:03:20.878Z,30.60
2018-05-04T12:05:46.968Z,30.50
2018-05-04T12:08:13.049Z,29.90
2018-05-04T12:10:39.138Z,30.40
2018-05-04T12:13:05.974Z,30.50
2018-05-04T12:15:32.816Z,29.40
2018-05-04T12:17:59.646Z,29.80
2018-05-04T12:20:25.751Z,29.30
2018-05-04T12:22:53.402Z,29.90
2018-05-04T12:25:20.511Z,29.90
2018-05-04T12:28:11.518Z,29.40
2018-05-04T12:30:37.647Z,29.30
2018-05-04T12:33:04.470Z,29.60
2018-05-04T12:35:31.305Z,29.50
2018-05-04T12:37:57.394Z,29.50
2018-05-04T12:40:23.495Z,29.60
2018-05-04T12:42:49.577Z,30.00
2018-05-04T12:45:17.150Z,30.00
2018-05-04T12:47:43.982Z,30.00
2018-05-04T12:50:25.163Z,29.90
2018-05-04T12:53:22.735Z,29.50
2018-05-04T12:55:54.950Z,29.40
2018-05-04T12:58:21.049Z,29.30
2018-05-04T13:00:47.146Z,29.20
2018-05-04T13:03:13.246Z,28.80
2018-05-04T13:05:39.333Z,28.70
2018-05-04T13:08:09.550Z,28.90
2018-05-04T13:10:39.010Z,29.20
2018-05-04T13:13:05.115Z,29.00
2018-05-04T13:15:31.201Z,29.50
2018-05-04T13:17:57.299Z,29.30
2018-05-04T13:20:23.979Z,29.20
2018-05-04T13:23:03.586Z,29.20
2018-05-04T13:25:57.984Z,30.00
2018-05-04T13:28:26.894Z,29.40
2018-05-04T13:30:52.983Z,29.30
2018-05-04T13:33:19.131Z,29.10
2018-05-04T13:35:45.177Z,28.70
2018-05-04T13:38:11.274Z,28.30
2018-05-04T13:40:38.117Z,28.40
2018-05-04T13:43:04.954Z,28.10
2018-05-04T13:45:31.059Z,28.10
2018-05-04T13:54:02.398Z,28.60
2018-05-04T13:56:34.803Z,28.90
2018-05-04T13:59:21.282Z,29.00
2018-05-04T14:01:47.385Z,28.80
2018-05-04T14:04:14.243Z,28.30
2018-05-04T14:06:40.366Z,28.30
2018-05-04T14:09:06.485Z,28.50
2018-05-04T14:11:33.326Z,28.10
2018-05-04T14:14:00.177Z,28.10
2018-05-04T14:16:26.355Z,28.10
2018-05-04T14:18:53.774Z,28.40
2018-05-04T14:21:19.885Z,28.30
2018-05-04T14:23:46.733Z,28.30
2018-05-04T14:26:12.841Z,28.30
2018-05-04T14:28:39.682Z,28.40
2018-05-04T14:31:06.540Z,28.40
2018-05-04T14:33:33.432Z,28.50
2018-05-04T14:35:59.505Z,28.50
2018-05-04T14:38:26.361Z,28.50
2018-05-04T14:40:52.480Z,28.50
2018-05-04T14:43:18.578Z,28.50
2018-05-04T14:45:44.687Z,28.00
2018-05-04T14:48:10.795Z,28.00
2018-05-04T14:50:36.926Z,28.60
2018-05-04T14:53:03.040Z,28.50
2018-05-04T14:55:29.147Z,29.20
2018-05-04T14:57:55.253Z,29.00
2018-05-04T15:00:22.099Z,28.70
2018-05-04T15:02:48.955Z,28.50
2018-05-04T15:05:15.054Z,28.50
2018-05-04T15:07:41.179Z,28.60
2018-05-04T15:10:07.295Z,29.10
2018-05-04T15:12:33.402Z,29.10
2018-05-04T15:14:59.497Z,29.10
2018-05-04T15:17:25.614Z,29.30
2018-05-04T15:19:51.718Z,29.40
2018-05-04T15:22:18.578Z,29.70
2018-05-04T15:24:44.673Z,29.70
2018-05-04T15:27:12.262Z,30.30
2018-05-04T15:29:38.362Z,30.30
2018-05-04T15:32:04.473Z,30.00
2018-05-04T15:34:34.838Z,30.00
2018-05-04T15:37:00.937Z,30.10
2018-05-04T15:39:27.790Z,30.50
2018-05-04T15:41:53.885Z,30.40
2018-05-04T15:44:19.986Z,30.80
2018-05-04T15:46:46.090Z,30.60
2018-05-04T15:49:18.181Z,30.90
2018-05-04T15:51:53.668Z,31.10
2018-05-04T15:54:19.769Z,31.30
2018-05-04T15:56:45.871Z,31.70
2018-05-04T15:59:11.992Z,32.20
2018-05-04T16:01:38.105Z,32.30
2018-05-04T16:04:04.207Z,32.70
2018-05-04T16:06:31.058Z,33.00
2018-05-04T16:08:57.893Z,33.40
2018-05-04T16:11:24.750Z,34.50
2018-05-04T16:13:50.853Z,33.80
2018-05-04T16:16:16.973Z,34.30
2018-05-04T16:18:43.078Z,35.50
2018-05-04T16:21:09.194Z,35.40
2018-05-04T16:23:35.286Z,35.70
2018-05-04T16:26:01.394Z,36.10
2018-05-04T16:28:28.253Z,36.60
2018-05-04T16:30:55.107Z,37.10
2018-05-04T16:33:21.222Z,37.10
2018-05-04T16:35:47.345Z,37.40
2018-05-04T16:38:14.189Z,37.70
2018-05-04T16:40:41.039Z,38.20
2018-05-04T16:43:07.142Z,38.20
2018-05-04T16:45:33.246Z,38.80
2018-05-04T16:48:05.354Z,39.30
2018-05-04T16:50:31.564Z,39.70
2018-05-04T16:52:57.593Z,39.70
2018-05-04T16:55:24.442Z,40.30
2018-05-04T16:57:51.317Z,40.60
2018-05-04T17:00:17.426Z,40.60
2018-05-04T17:02:43.530Z,40.90
2018-05-04T17:05:10.379Z,41.50
2018-05-04T17:07:37.241Z,41.80
2018-05-04T17:10:03.350Z,41.80
2018-05-04T17:12:30.209Z,42.20
2018-05-04T17:14:56.322Z,42.70
2018-05-04T17:17:22.430Z,42.40
2018-05-04T17:19:48.551Z,42.70
2018-05-04T17:22:15.450Z,43.40
2018-05-04T17:24:41.533Z,43.30
2018-05-04T17:27:08.410Z,44.10
2018-05-04T17:29:34.523Z,44.00
2018-05-04T17:32:00.629Z,44.30
2018-05-04T17:34:27.467Z,44.90
2018-05-04T17:36:53.579Z,44.90
2018-05-04T17:39:19.685Z,45.30
2018-05-04T17:41:45.790Z,45.60
2018-05-04T17:44:11.893Z,46.00
2018-05-04T17:46:37.995Z,46.30
2018-05-04T17:49:04.849Z,47.10
2018-05-04T17:51:31.699Z,47.50
2018-05-04T17:53:58.551Z,47.70
2018-05-04T17:56:24.646Z,47.70
2018-05-04T17:59:01.409Z,48.00
2018-05-04T18:01:27.526Z,48.40
2018-05-04T18:03:53.634Z,49.10
2018-05-04T18:06:19.727Z,49.60
2018-05-04T18:08:45.844Z,50.20
2018-05-04T18:11:29.777Z,51.40
2018-05-04T18:14:23.420Z,51.30
2018-05-04T18:17:10.182Z,51.80
2018-05-04T18:19:36.353Z,52.20
2018-05-04T18:22:02.424Z,52.70
2018-05-04T18:24:56.539Z,53.50
2018-05-04T18:27:29.550Z,54.10
2018-05-04T18:29:55.649Z,54.70
2018-05-04T18:32:21.750Z,55.20
2018-05-04T18:34:52.202Z,56.20
2018-05-04T18:37:19.350Z,56.20
2018-05-04T18:39:45.454Z,56.90
2018-05-04T18:42:11.570Z,57.40
2018-05-04T18:44:38.420Z,58.10
2018-05-04T18:47:05.257Z,58.50
2018-05-04T18:49:32.093Z,59.20
2018-05-04T18:51:58.948Z,59.70
2018-05-04T18:54:25.146Z,59.70
2018-05-04T18:56:51.929Z,61.20
2018-05-04T18:59:19.024Z,61.10
2018-05-04T19:01:45.125Z,62.00
2018-05-04T19:04:11.226Z,62.20
2018-05-04T19:06:37.334Z,62.20
2018-05-04T19:09:05.106Z,62.80
2018-05-04T19:11:31.954Z,63.30
2018-05-04T19:13:58.790Z,63.80
2018-05-04T19:19:35.958Z,64.40
2018-05-04T19:22:02.063Z,64.40
2018-05-04T19:24:28.161Z,64.50
2018-05-04T19:26:54.947Z,65.00
2018-05-04T19:29:21.041Z,65.50
2018-05-04T19:31:47.143Z,66.10
2018-05-04T19:34:14.821Z,66.70
2018-05-04T19:36:40.924Z,66.70
2018-05-04T19:39:07.782Z,67.30
2018-05-04T19:41:34.622Z,67.70
2018-05-04T19:44:01.470Z,68.30
2018-05-04T19:46:28.313Z,69.00
2018-05-04T19:48:55.157Z,69.40
2018-05-04T19:51:22.007Z,70.20
2018-05-04T19:53:48.123Z,70.10
2018-05-04T19:56:25.663Z,70.20
2018-05-04T19:58:51.841Z,70.20
2018-05-04T20:01:17.873Z,70.60
2018-05-04T20:03:43.990Z,71.20
2018-05-04T20:06:10.833Z,71.50
2018-05-04T20:08:37.671Z,71.80
2018-05-04T20:11:04.500Z,72.30
2018-05-04T20:13:30.585Z,72.10
2018-05-04T20:15:56.675Z,72.40
2018-05-04T20:18:22.769Z,72.70
2018-05-04T20:20:48.873Z,72.70
2018-05-04T20:23:14.959Z,73.50
2018-05-04T20:25:41.054Z,73.60
2018-05-04T20:28:07.136Z,73.60
2018-05-04T20:30:33.238Z,73.70
2018-05-04T20:32:59.330Z,74.30
2018-05-04T20:35:25.416Z,74.50
2018-05-04T20:37:51.510Z,74.50
2018-05-04T20:40:17.619Z,75.10
2018-05-04T20:42:51.070Z,75.40
2018-05-04T20:45:17.166Z,75.40
2018-05-04T20:47:43.262Z,75.80
2018-05-04T20:50:09.349Z,75.60
2018-05-04T20:52:35.451Z,75.70
2018-05-04T20:55:01.546Z,75.80
2018-05-04T20:57:28.386Z,76.50
2018-05-04T20:59:55.222Z,76.60
2018-05-04T21:02:21.318Z,77.20
2018-05-04T21:04:47.422Z,77.20
2018-05-04T21:07:13.528Z,77.20
2018-05-04T21:09:39.621Z,77.20
2018-05-04T21:12:05.714Z,77.70
2018-05-04T21:20:33.021Z,78.30
2018-05-04T21:22:59.122Z,78.30
2018-05-04T21:28:28.934Z,78.50
2018-05-04T21:31:01.230Z,78.40
2018-05-04T21:33:27.323Z,78.60
2018-05-04T21:35:54.149Z,79.10
2018-05-04T21:38:21.502Z,79.30
2018-05-04T21:40:58.538Z,79.00
2018-05-04T21:43:24.638Z,79.50
2018-05-04T21:45:54.749Z,79.30
2018-05-04T21:48:21.590Z,79.60
2018-05-04T21:50:48.429Z,79.50
2018-05-04T21:53:15.298Z,79.90
2018-05-04T21:55:48.102Z,79.80
2018-05-04T21:58:20.487Z,79.70
2018-05-04T22:00:47.350Z,79.90
2018-05-04T22:03:17.413Z,80.00
2018-05-04T22:05:43.530Z,80.30
2018-05-04T22:08:09.636Z,80.70
2018-05-04T22:10:36.485Z,80.70
2018-05-04T22:13:03.327Z,81.00
2018-05-04T22:15:31.813Z,81.00
2018-05-04T22:17:58.655Z,81.40
2018-05-04T22:20:25.519Z,81.20
2018-05-04T22:22:56.449Z,81.20
2018-05-04T22:25:22.579Z,81.20
2018-05-04T22:28:08.231Z,81.00
2018-05-04T22:30:35.082Z,81.40
2018-05-04T22:33:01.934Z,81.50
2018-05-04T22:35:28.785Z,81.80
2018-05-04T22:37:55.630Z,82.10
2018-05-04T22:40:22.797Z,82.10
2018-05-04T22:42:55.417Z,82.20
2018-05-04T22:45:23.018Z,82.60
2018-05-04T22:50:55.226Z,82.60
2018-05-04T22:53:32.126Z,82.80
2018-05-04T22:56:05.532Z,83.20
2018-05-04T22:58:41.887Z,83.40
2018-05-04T23:01:32.654Z,83.50
2018-05-04T23:03:58.745Z,83.50
2018-05-04T23:06:26.947Z,83.70
2018-05-04T23:09:07.046Z,83.90
2018-05-04T23:11:34.550Z,84.10
2018-05-04T23:14:01.380Z,84.60
2018-05-04T23:16:27.477Z,84.60
2018-05-04T23:18:53.565Z,84.70
2018-05-04T23:21:19.661Z,84.70
2018-05-04T23:23:45.749Z,84.80
2018-05-04T23:26:11.845Z,85.70
2018-05-04T23:29:05.253Z,85.10
2018-05-04T23:31:31.351Z,85.10
2018-05-04T23:37:12.731Z,85.60
2018-05-04T23:39:38.824Z,85.50
2018-05-04T23:42:04.901Z,85.60
2018-05-04T23:44:30.998Z,85.60
2018-05-04T23:46:57.842Z,86.00
2018-05-04T23:49:24.686Z,86.10
2018-05-04T23:51:51.506Z,86.20
2018-05-04T23:54:17.606Z,86.20
2018-05-04T23:56:43.698Z,86.30
2018-05-04T23:59:10.465Z,86.30
